sensor_id;sensor_type;location;lat;lon;timestamp;P1;durP1;ratioP1;P2;durP2;ratioP2
60006;SDS011;45863;50.336;3.536;2023-08-21T00:02:22;9.83;;;2.60;;
60006;SDS011;45863;50.336;3.536;2023-08-21T00:04:47;15.07;;;2.33;;
60006;SDS011;45863;50.336;3.536;2023-08-21T00:07:12;13.40;;;2.63;;
60006;SDS011;45863;50.336;3.536;2023-08-21T00:09:39;8.63;;;2.53;;
60006;SDS011;45863;50.336;3.536;2023-08-21T00:12:06;12.47;;;2.73;;
60006;SDS011;45863;50.336;3.536;2023-08-21T00:14:31;9.57;;;2.70;;
60006;SDS011;45863;50.336;3.536;2023-08-21T00:16:56;8.85;;;2.90;;
60006;SDS011;45863;50.336;3.536;2023-08-21T00:19:22;13.57;;;2.37;;
60006;SDS011;45863;50.336;3.536;2023-08-21T00:21:47;13.00;;;2.83;;
60006;SDS011;45863;50.336;3.536;2023-08-21T00:24:12;12.35;;;2.90;;
60006;SDS011;45863;50.336;3.536;2023-08-21T00:26:37;11.65;;;2.22;;
60006;SDS011;45863;50.336;3.536;2023-08-21T00:29:03;11.43;;;2.93;;
60006;SDS011;45863;50.336;3.536;2023-08-21T00:31:28;9.43;;;2.75;;
60006;SDS011;45863;50.336;3.536;2023-08-21T00:33:53;12.07;;;2.67;;
60006;SDS011;45863;50.336;3.536;2023-08-21T00:36:19;7.30;;;2.20;;
60006;SDS011;45863;50.336;3.536;2023-08-21T00:38:45;9.98;;;2.45;;
60006;SDS011;45863;50.336;3.536;2023-08-21T00:41:10;12.70;;;3.20;;
60006;SDS011;45863;50.336;3.536;2023-08-21T00:43:35;10.20;;;2.60;;
60006;SDS011;45863;50.336;3.536;2023-08-21T00:46:00;12.60;;;2.43;;
60006;SDS011;45863;50.336;3.536;2023-08-21T00:48:26;10.52;;;2.65;;
60006;SDS011;45863;50.336;3.536;2023-08-21T00:50:51;15.00;;;3.65;;
60006;SDS011;45863;50.336;3.536;2023-08-21T00:53:16;11.38;;;2.65;;
60006;SDS011;45863;50.336;3.536;2023-08-21T00:55:42;19.77;;;3.38;;
60006;SDS011;45863;50.336;3.536;2023-08-21T00:58:08;11.75;;;2.83;;
60006;SDS011;45863;50.336;3.536;2023-08-21T01:00:34;11.45;;;2.60;;
60006;SDS011;45863;50.336;3.536;2023-08-21T01:03:00;11.20;;;2.60;;
60006;SDS011;45863;50.336;3.536;2023-08-21T01:05:25;10.67;;;3.17;;
60006;SDS011;45863;50.336;3.536;2023-08-21T01:08:10;13.00;;;3.25;;
60006;SDS011;45863;50.336;3.536;2023-08-21T01:10:43;12.52;;;2.70;;
60006;SDS011;45863;50.336;3.536;2023-08-21T01:15:41;12.02;;;2.97;;
60006;SDS011;45863;50.336;3.536;2023-08-21T01:18:07;11.85;;;3.00;;
60006;SDS011;45863;50.336;3.536;2023-08-21T01:20:33;12.98;;;2.95;;
60006;SDS011;45863;50.336;3.536;2023-08-21T01:23:03;8.85;;;2.67;;
60006;SDS011;45863;50.336;3.536;2023-08-21T01:25:28;8.90;;;2.60;;
60006;SDS011;45863;50.336;3.536;2023-08-21T01:27:54;11.50;;;2.60;;
60006;SDS011;45863;50.336;3.536;2023-08-21T01:30:19;13.63;;;3.47;;
60006;SDS011;45863;50.336;3.536;2023-08-21T01:35:15;14.60;;;2.90;;
60006;SDS011;45863;50.336;3.536;2023-08-21T01:37:40;12.75;;;3.60;;
60006;SDS011;45863;50.336;3.536;2023-08-21T01:40:06;8.32;;;3.00;;
60006;SDS011;45863;50.336;3.536;2023-08-21T01:42:31;10.27;;;3.33;;
60006;SDS011;45863;50.336;3.536;2023-08-21T01:44:56;11.17;;;2.93;;
60006;SDS011;45863;50.336;3.536;2023-08-21T01:47:22;9.85;;;3.40;;
60006;SDS011;45863;50.336;3.536;2023-08-21T01:49:47;14.07;;;3.27;;
60006;SDS011;45863;50.336;3.536;2023-08-21T01:52:12;9.77;;;3.10;;
60006;SDS011;45863;50.336;3.536;2023-08-21T01:54:37;11.32;;;3.45;;
60006;SDS011;45863;50.336;3.536;2023-08-21T01:57:03;11.07;;;3.60;;
60006;SDS011;45863;50.336;3.536;2023-08-21T01:59:28;13.18;;;3.15;;
60006;SDS011;45863;50.336;3.536;2023-08-21T02:01:53;9.10;;;2.73;;
60006;SDS011;45863;50.336;3.536;2023-08-21T02:04:19;10.10;;;3.00;;
60006;SDS011;45863;50.336;3.536;2023-08-21T02:06:44;9.50;;;3.00;;
60006;SDS011;45863;50.336;3.536;2023-08-21T02:09:09;13.20;;;3.63;;
60006;SDS011;45863;50.336;3.536;2023-08-21T02:11:35;13.50;;;4.57;;
60006;SDS011;45863;50.336;3.536;2023-08-21T02:14:00;10.05;;;3.63;;
60006;SDS011;45863;50.336;3.536;2023-08-21T02:16:25;15.20;;;3.70;;
60006;SDS011;45863;50.336;3.536;2023-08-21T02:18:50;9.33;;;3.10;;
60006;SDS011;45863;50.336;3.536;2023-08-21T02:21:16;11.50;;;3.93;;
60006;SDS011;45863;50.336;3.536;2023-08-21T02:23:41;11.77;;;3.80;;
60006;SDS011;45863;50.336;3.536;2023-08-21T02:26:06;10.13;;;3.08;;
60006;SDS011;45863;50.336;3.536;2023-08-21T02:28:31;9.97;;;3.13;;
60006;SDS011;45863;50.336;3.536;2023-08-21T02:30:56;10.47;;;3.37;;
60006;SDS011;45863;50.336;3.536;2023-08-21T02:33:22;9.50;;;2.88;;
60006;SDS011;45863;50.336;3.536;2023-08-21T02:35:47;8.90;;;2.90;;
60006;SDS011;45863;50.336;3.536;2023-08-21T02:38:12;9.57;;;3.00;;
60006;SDS011;45863;50.336;3.536;2023-08-21T02:40:37;9.50;;;3.43;;
60006;SDS011;45863;50.336;3.536;2023-08-21T02:43:03;10.90;;;3.13;;
60006;SDS011;45863;50.336;3.536;2023-08-21T02:45:28;16.73;;;3.70;;
60006;SDS011;45863;50.336;3.536;2023-08-21T02:47:53;10.15;;;3.50;;
60006;SDS011;45863;50.336;3.536;2023-08-21T02:50:18;7.73;;;2.67;;
60006;SDS011;45863;50.336;3.536;2023-08-21T02:52:43;10.45;;;3.15;;
60006;SDS011;45863;50.336;3.536;2023-08-21T02:55:09;12.07;;;3.47;;
60006;SDS011;45863;50.336;3.536;2023-08-21T02:57:34;11.15;;;2.95;;
60006;SDS011;45863;50.336;3.536;2023-08-21T02:59:59;9.13;;;3.30;;
60006;SDS011;45863;50.336;3.536;2023-08-21T03:02:24;11.03;;;3.20;;
60006;SDS011;45863;50.336;3.536;2023-08-21T03:04:50;8.83;;;3.07;;
60006;SDS011;45863;50.336;3.536;2023-08-21T03:07:15;9.38;;;3.05;;
60006;SDS011;45863;50.336;3.536;2023-08-21T03:09:40;13.02;;;2.83;;
60006;SDS011;45863;50.336;3.536;2023-08-21T03:12:06;10.60;;;3.05;;
60006;SDS011;45863;50.336;3.536;2023-08-21T03:14:31;14.15;;;4.03;;
60006;SDS011;45863;50.336;3.536;2023-08-21T03:16:56;10.43;;;3.37;;
60006;SDS011;45863;50.336;3.536;2023-08-21T03:19:22;13.90;;;3.20;;
60006;SDS011;45863;50.336;3.536;2023-08-21T03:21:47;9.60;;;3.43;;
60006;SDS011;45863;50.336;3.536;2023-08-21T03:24:12;5.93;;;2.65;;
60006;SDS011;45863;50.336;3.536;2023-08-21T03:26:37;10.93;;;3.25;;
60006;SDS011;45863;50.336;3.536;2023-08-21T03:29:03;13.90;;;3.57;;
60006;SDS011;45863;50.336;3.536;2023-08-21T03:31:28;11.73;;;3.90;;
60006;SDS011;45863;50.336;3.536;2023-08-21T03:33:54;8.45;;;3.72;;
60006;SDS011;45863;50.336;3.536;2023-08-21T03:36:19;9.43;;;2.83;;
60006;SDS011;45863;50.336;3.536;2023-08-21T03:38:44;10.10;;;3.07;;
60006;SDS011;45863;50.336;3.536;2023-08-21T03:41:09;12.10;;;3.35;;
60006;SDS011;45863;50.336;3.536;2023-08-21T03:43:35;10.38;;;2.97;;
60006;SDS011;45863;50.336;3.536;2023-08-21T03:46:00;8.57;;;3.03;;
60006;SDS011;45863;50.336;3.536;2023-08-21T03:48:25;12.80;;;2.90;;
60006;SDS011;45863;50.336;3.536;2023-08-21T03:50:50;10.55;;;3.70;;
60006;SDS011;45863;50.336;3.536;2023-08-21T03:53:16;11.17;;;3.83;;
60006;SDS011;45863;50.336;3.536;2023-08-21T03:55:41;10.53;;;3.33;;
60006;SDS011;45863;50.336;3.536;2023-08-21T03:58:06;7.47;;;3.60;;
60006;SDS011;45863;50.336;3.536;2023-08-21T04:00:31;8.90;;;3.10;;
60006;SDS011;45863;50.336;3.536;2023-08-21T04:02:57;7.20;;;3.20;;
60006;SDS011;45863;50.336;3.536;2023-08-21T04:05:22;11.40;;;3.20;;
60006;SDS011;45863;50.336;3.536;2023-08-21T04:07:48;9.10;;;3.13;;
60006;SDS011;45863;50.336;3.536;2023-08-21T04:10:13;7.60;;;3.43;;
60006;SDS011;45863;50.336;3.536;2023-08-21T04:12:38;13.87;;;3.60;;
60006;SDS011;45863;50.336;3.536;2023-08-21T04:15:03;9.07;;;3.33;;
60006;SDS011;45863;50.336;3.536;2023-08-21T04:17:30;14.35;;;3.47;;
60006;SDS011;45863;50.336;3.536;2023-08-21T04:19:55;12.25;;;3.38;;
60006;SDS011;45863;50.336;3.536;2023-08-21T04:22:20;12.35;;;3.65;;
60006;SDS011;45863;50.336;3.536;2023-08-21T04:24:45;11.73;;;3.57;;
60006;SDS011;45863;50.336;3.536;2023-08-21T04:27:11;10.43;;;3.50;;
60006;SDS011;45863;50.336;3.536;2023-08-21T04:29:36;11.53;;;3.40;;
60006;SDS011;45863;50.336;3.536;2023-08-21T04:32:01;10.85;;;3.28;;
60006;SDS011;45863;50.336;3.536;2023-08-21T04:34:26;12.07;;;3.42;;
60006;SDS011;45863;50.336;3.536;2023-08-21T04:36:52;9.25;;;3.25;;
60006;SDS011;45863;50.336;3.536;2023-08-21T04:39:17;8.25;;;3.15;;
60006;SDS011;45863;50.336;3.536;2023-08-21T04:41:42;11.15;;;2.85;;
60006;SDS011;45863;50.336;3.536;2023-08-21T04:44:07;9.30;;;4.00;;
60006;SDS011;45863;50.336;3.536;2023-08-21T04:46:33;6.57;;;2.80;;
60006;SDS011;45863;50.336;3.536;2023-08-21T04:48:58;11.93;;;3.50;;
60006;SDS011;45863;50.336;3.536;2023-08-21T04:51:23;13.07;;;3.00;;
60006;SDS011;45863;50.336;3.536;2023-08-21T04:53:49;14.63;;;4.50;;
60006;SDS011;45863;50.336;3.536;2023-08-21T04:56:14;14.17;;;3.53;;
60006;SDS011;45863;50.336;3.536;2023-08-21T04:58:39;9.85;;;3.15;;
60006;SDS011;45863;50.336;3.536;2023-08-21T05:01:05;15.32;;;3.60;;
60006;SDS011;45863;50.336;3.536;2023-08-21T05:03:30;9.82;;;3.50;;
60006;SDS011;45863;50.336;3.536;2023-08-21T05:05:55;11.05;;;3.55;;
60006;SDS011;45863;50.336;3.536;2023-08-21T05:08:22;10.15;;;3.60;;
60006;SDS011;45863;50.336;3.536;2023-08-21T05:10:47;8.93;;;3.15;;
60006;SDS011;45863;50.336;3.536;2023-08-21T05:13:12;10.40;;;4.00;;
60006;SDS011;45863;50.336;3.536;2023-08-21T05:15:40;8.80;;;3.25;;
60006;SDS011;45863;50.336;3.536;2023-08-21T05:18:05;8.85;;;3.13;;
60006;SDS011;45863;50.336;3.536;2023-08-21T05:20:30;9.13;;;3.00;;
60006;SDS011;45863;50.336;3.536;2023-08-21T05:22:55;10.13;;;3.37;;
60006;SDS011;45863;50.336;3.536;2023-08-21T05:25:20;14.60;;;3.40;;
60006;SDS011;45863;50.336;3.536;2023-08-21T05:27:46;9.05;;;4.10;;
60006;SDS011;45863;50.336;3.536;2023-08-21T05:30:11;9.63;;;3.07;;
60006;SDS011;45863;50.336;3.536;2023-08-21T05:32:38;9.00;;;3.20;;
60006;SDS011;45863;50.336;3.536;2023-08-21T05:35:03;8.87;;;3.07;;
60006;SDS011;45863;50.336;3.536;2023-08-21T05:37:29;10.82;;;3.10;;
60006;SDS011;45863;50.336;3.536;2023-08-21T05:39:54;13.97;;;4.00;;
60006;SDS011;45863;50.336;3.536;2023-08-21T05:42:19;10.27;;;3.00;;
60006;SDS011;45863;50.336;3.536;2023-08-21T05:44:44;8.63;;;2.97;;
60006;SDS011;45863;50.336;3.536;2023-08-21T05:47:09;12.25;;;3.25;;
60006;SDS011;45863;50.336;3.536;2023-08-21T05:49:35;8.68;;;3.05;;
60006;SDS011;45863;50.336;3.536;2023-08-21T05:52:00;9.25;;;3.28;;
60006;SDS011;45863;50.336;3.536;2023-08-21T05:54:25;10.55;;;3.72;;
60006;SDS011;45863;50.336;3.536;2023-08-21T05:56:51;11.95;;;3.70;;
60006;SDS011;45863;50.336;3.536;2023-08-21T05:59:26;11.35;;;3.40;;
60006;SDS011;45863;50.336;3.536;2023-08-21T06:01:53;11.23;;;3.42;;
60006;SDS011;45863;50.336;3.536;2023-08-21T06:04:18;11.03;;;2.80;;
60006;SDS011;45863;50.336;3.536;2023-08-21T06:06:43;11.43;;;2.93;;
60006;SDS011;45863;50.336;3.536;2023-08-21T06:09:08;12.10;;;3.13;;
60006;SDS011;45863;50.336;3.536;2023-08-21T06:11:33;12.00;;;3.22;;
60006;SDS011;45863;50.336;3.536;2023-08-21T06:13:59;9.77;;;3.20;;
60006;SDS011;45863;50.336;3.536;2023-08-21T06:16:24;10.50;;;2.93;;
60006;SDS011;45863;50.336;3.536;2023-08-21T06:18:49;13.33;;;3.50;;
60006;SDS011;45863;50.336;3.536;2023-08-21T06:21:14;12.30;;;2.97;;
60006;SDS011;45863;50.336;3.536;2023-08-21T06:23:39;15.10;;;3.60;;
60006;SDS011;45863;50.336;3.536;2023-08-21T06:26:05;14.25;;;3.50;;
60006;SDS011;45863;50.336;3.536;2023-08-21T06:28:30;13.50;;;3.40;;
60006;SDS011;45863;50.336;3.536;2023-08-21T06:30:55;9.87;;;2.93;;
60006;SDS011;45863;50.336;3.536;2023-08-21T06:33:22;10.05;;;3.15;;
60006;SDS011;45863;50.336;3.536;2023-08-21T06:35:47;14.13;;;3.58;;
60006;SDS011;45863;50.336;3.536;2023-08-21T06:38:12;13.85;;;3.30;;
60006;SDS011;45863;50.336;3.536;2023-08-21T06:40:38;10.80;;;3.47;;
60006;SDS011;45863;50.336;3.536;2023-08-21T06:43:03;12.33;;;3.77;;
60006;SDS011;45863;50.336;3.536;2023-08-21T06:45:30;8.75;;;3.13;;
60006;SDS011;45863;50.336;3.536;2023-08-21T06:47:57;10.02;;;3.05;;
60006;SDS011;45863;50.336;3.536;2023-08-21T06:50:22;14.85;;;3.10;;
60006;SDS011;45863;50.336;3.536;2023-08-21T06:52:47;14.30;;;3.50;;
60006;SDS011;45863;50.336;3.536;2023-08-21T06:55:13;16.80;;;3.88;;
60006;SDS011;45863;50.336;3.536;2023-08-21T06:57:38;11.87;;;3.57;;
60006;SDS011;45863;50.336;3.536;2023-08-21T07:00:04;11.20;;;3.83;;
60006;SDS011;45863;50.336;3.536;2023-08-21T07:02:30;13.57;;;3.47;;
60006;SDS011;45863;50.336;3.536;2023-08-21T07:04:56;10.40;;;3.15;;
60006;SDS011;45863;50.336;3.536;2023-08-21T07:07:21;14.85;;;3.53;;
60006;SDS011;45863;50.336;3.536;2023-08-21T07:09:47;12.45;;;3.78;;
60006;SDS011;45863;50.336;3.536;2023-08-21T07:12:12;12.77;;;3.30;;
60006;SDS011;45863;50.336;3.536;2023-08-21T07:14:37;12.87;;;3.53;;
60006;SDS011;45863;50.336;3.536;2023-08-21T07:17:02;13.20;;;4.43;;
60006;SDS011;45863;50.336;3.536;2023-08-21T07:19:27;11.40;;;3.30;;
60006;SDS011;45863;50.336;3.536;2023-08-21T07:21:53;17.27;;;3.97;;
60006;SDS011;45863;50.336;3.536;2023-08-21T07:24:18;13.20;;;3.50;;
60006;SDS011;45863;50.336;3.536;2023-08-21T07:26:43;12.53;;;3.27;;
60006;SDS011;45863;50.336;3.536;2023-08-21T07:29:08;14.83;;;3.77;;
60006;SDS011;45863;50.336;3.536;2023-08-21T07:31:33;14.75;;;3.67;;
60006;SDS011;45863;50.336;3.536;2023-08-21T07:33:59;14.53;;;4.53;;
60006;SDS011;45863;50.336;3.536;2023-08-21T07:36:24;12.27;;;4.32;;
60006;SDS011;45863;50.336;3.536;2023-08-21T07:38:49;12.47;;;4.20;;
60006;SDS011;45863;50.336;3.536;2023-08-21T07:41:15;14.73;;;3.72;;
60006;SDS011;45863;50.336;3.536;2023-08-21T07:43:41;12.00;;;3.25;;
60006;SDS011;45863;50.336;3.536;2023-08-21T07:46:07;12.27;;;3.67;;
60006;SDS011;45863;50.336;3.536;2023-08-21T07:48:32;12.07;;;3.65;;
60006;SDS011;45863;50.336;3.536;2023-08-21T07:50:57;12.15;;;3.25;;
60006;SDS011;45863;50.336;3.536;2023-08-21T07:53:23;13.13;;;3.42;;
60006;SDS011;45863;50.336;3.536;2023-08-21T07:55:49;10.02;;;3.15;;
60006;SDS011;45863;50.336;3.536;2023-08-21T07:58:14;11.10;;;3.85;;
60006;SDS011;45863;50.336;3.536;2023-08-21T08:00:40;13.20;;;3.22;;
60006;SDS011;45863;50.336;3.536;2023-08-21T08:03:06;11.15;;;3.65;;
60006;SDS011;45863;50.336;3.536;2023-08-21T08:05:31;13.15;;;3.78;;
60006;SDS011;45863;50.336;3.536;2023-08-21T08:07:57;9.55;;;3.30;;
60006;SDS011;45863;50.336;3.536;2023-08-21T08:10:23;14.50;;;3.77;;
60006;SDS011;45863;50.336;3.536;2023-08-21T08:12:48;13.52;;;3.08;;
60006;SDS011;45863;50.336;3.536;2023-08-21T08:15:13;10.17;;;3.10;;
60006;SDS011;45863;50.336;3.536;2023-08-21T08:17:38;12.13;;;3.47;;
60006;SDS011;45863;50.336;3.536;2023-08-21T08:20:04;12.37;;;3.30;;
60006;SDS011;45863;50.336;3.536;2023-08-21T08:22:31;11.93;;;3.70;;
60006;SDS011;45863;50.336;3.536;2023-08-21T08:24:56;9.55;;;2.92;;
60006;SDS011;45863;50.336;3.536;2023-08-21T08:27:21;10.37;;;3.30;;
60006;SDS011;45863;50.336;3.536;2023-08-21T08:29:46;9.33;;;2.77;;
60006;SDS011;45863;50.336;3.536;2023-08-21T08:32:12;10.13;;;2.67;;
60006;SDS011;45863;50.336;3.536;2023-08-21T08:34:37;9.03;;;2.70;;
60006;SDS011;45863;50.336;3.536;2023-08-21T08:37:02;9.43;;;2.60;;
60006;SDS011;45863;50.336;3.536;2023-08-21T08:39:27;10.20;;;3.50;;
60006;SDS011;45863;50.336;3.536;2023-08-21T08:41:59;9.53;;;2.70;;
60006;SDS011;45863;50.336;3.536;2023-08-21T08:44:26;11.15;;;2.80;;
60006;SDS011;45863;50.336;3.536;2023-08-21T08:46:52;10.38;;;2.70;;
60006;SDS011;45863;50.336;3.536;2023-08-21T08:49:17;8.55;;;2.50;;
60006;SDS011;45863;50.336;3.536;2023-08-21T08:51:42;9.30;;;3.13;;
60006;SDS011;45863;50.336;3.536;2023-08-21T08:54:08;12.27;;;3.00;;
60006;SDS011;45863;50.336;3.536;2023-08-21T08:56:34;12.35;;;2.90;;
60006;SDS011;45863;50.336;3.536;2023-08-21T08:58:59;10.20;;;2.55;;
60006;SDS011;45863;50.336;3.536;2023-08-21T09:01:24;9.25;;;2.45;;
60006;SDS011;45863;50.336;3.536;2023-08-21T09:03:49;6.30;;;2.20;;
60006;SDS011;45863;50.336;3.536;2023-08-21T09:06:15;7.78;;;1.95;;
60006;SDS011;45863;50.336;3.536;2023-08-21T09:08:44;9.65;;;3.03;;
60006;SDS011;45863;50.336;3.536;2023-08-21T09:11:17;7.70;;;2.38;;
60006;SDS011;45863;50.336;3.536;2023-08-21T09:13:43;6.90;;;2.57;;
60006;SDS011;45863;50.336;3.536;2023-08-21T09:16:08;10.38;;;2.28;;
60006;SDS011;45863;50.336;3.536;2023-08-21T09:18:34;10.02;;;2.38;;
60006;SDS011;45863;50.336;3.536;2023-08-21T09:21:01;7.22;;;2.08;;
60006;SDS011;45863;50.336;3.536;2023-08-21T09:23:27;6.70;;;2.55;;
60006;SDS011;45863;50.336;3.536;2023-08-21T09:25:53;8.45;;;2.17;;
60006;SDS011;45863;50.336;3.536;2023-08-21T09:28:19;9.30;;;2.13;;
60006;SDS011;45863;50.336;3.536;2023-08-21T09:30:46;6.65;;;2.28;;
60006;SDS011;45863;50.336;3.536;2023-08-21T09:33:12;8.48;;;2.25;;
60006;SDS011;45863;50.336;3.536;2023-08-21T09:35:37;7.57;;;2.10;;
60006;SDS011;45863;50.336;3.536;2023-08-21T09:38:02;6.53;;;2.20;;
60006;SDS011;45863;50.336;3.536;2023-08-21T09:40:28;9.85;;;2.17;;
60006;SDS011;45863;50.336;3.536;2023-08-21T09:42:53;6.23;;;2.60;;
60006;SDS011;45863;50.336;3.536;2023-08-21T09:45:23;7.18;;;1.90;;
60006;SDS011;45863;50.336;3.536;2023-08-21T09:47:48;5.43;;;1.90;;
60006;SDS011;45863;50.336;3.536;2023-08-21T09:50:14;7.00;;;2.00;;
60006;SDS011;45863;50.336;3.536;2023-08-21T09:52:39;5.93;;;1.90;;
60006;SDS011;45863;50.336;3.536;2023-08-21T09:55:05;6.03;;;1.88;;
60006;SDS011;45863;50.336;3.536;2023-08-21T09:57:30;6.07;;;1.92;;
60006;SDS011;45863;50.336;3.536;2023-08-21T09:59:56;8.60;;;1.80;;
60006;SDS011;45863;50.336;3.536;2023-08-21T10:02:22;6.70;;;2.08;;
60006;SDS011;45863;50.336;3.536;2023-08-21T10:04:48;5.28;;;1.38;;
60006;SDS011;45863;50.336;3.536;2023-08-21T10:07:14;8.18;;;2.13;;
60006;SDS011;45863;50.336;3.536;2023-08-21T10:09:41;6.90;;;2.10;;
60006;SDS011;45863;50.336;3.536;2023-08-21T10:12:08;4.38;;;1.50;;
60006;SDS011;45863;50.336;3.536;2023-08-21T10:14:34;5.53;;;1.75;;
60006;SDS011;45863;50.336;3.536;2023-08-21T10:16:59;5.47;;;1.70;;
60006;SDS011;45863;50.336;3.536;2023-08-21T10:19:30;5.97;;;1.70;;
60006;SDS011;45863;50.336;3.536;2023-08-21T10:21:55;6.68;;;1.70;;
60006;SDS011;45863;50.336;3.536;2023-08-21T10:24:36;5.35;;;1.70;;
60006;SDS011;45863;50.336;3.536;2023-08-21T10:27:02;4.25;;;1.60;;
60006;SDS011;45863;50.336;3.536;2023-08-21T10:29:28;9.33;;;2.20;;
60006;SDS011;45863;50.336;3.536;2023-08-21T10:32:00;5.18;;;1.70;;
60006;SDS011;45863;50.336;3.536;2023-08-21T10:34:31;6.35;;;1.60;;
60006;SDS011;45863;50.336;3.536;2023-08-21T10:39:25;5.97;;;2.00;;
60006;SDS011;45863;50.336;3.536;2023-08-21T10:47:12;5.65;;;2.00;;
60006;SDS011;45863;50.336;3.536;2023-08-21T10:49:38;6.70;;;2.38;;
60006;SDS011;45863;50.336;3.536;2023-08-21T10:52:03;5.60;;;1.87;;
60006;SDS011;45863;50.336;3.536;2023-08-21T10:54:28;9.23;;;2.10;;
60006;SDS011;45863;50.336;3.536;2023-08-21T10:57:07;10.65;;;2.03;;
60006;SDS011;45863;50.336;3.536;2023-08-21T10:59:32;5.28;;;1.60;;
60006;SDS011;45863;50.336;3.536;2023-08-21T11:01:58;7.20;;;2.05;;
60006;SDS011;45863;50.336;3.536;2023-08-21T11:04:23;5.27;;;1.97;;
60006;SDS011;45863;50.336;3.536;2023-08-21T11:06:50;4.60;;;1.80;;
60006;SDS011;45863;50.336;3.536;2023-08-21T11:09:16;7.60;;;2.00;;
60006;SDS011;45863;50.336;3.536;2023-08-21T11:11:42;6.13;;;1.55;;
60006;SDS011;45863;50.336;3.536;2023-08-21T11:14:08;4.22;;;2.00;;
60006;SDS011;45863;50.336;3.536;2023-08-21T11:16:33;3.97;;;1.30;;
60006;SDS011;45863;50.336;3.536;2023-08-21T11:19:02;4.57;;;1.70;;
60006;SDS011;45863;50.336;3.536;2023-08-21T11:21:27;3.95;;;1.45;;
60006;SDS011;45863;50.336;3.536;2023-08-21T11:23:53;3.97;;;1.50;;
60006;SDS011;45863;50.336;3.536;2023-08-21T11:26:18;4.63;;;2.00;;
60006;SDS011;45863;50.336;3.536;2023-08-21T11:28:43;3.80;;;1.80;;
60006;SDS011;45863;50.336;3.536;2023-08-21T11:31:09;3.65;;;1.60;;
60006;SDS011;45863;50.336;3.536;2023-08-21T11:33:36;6.13;;;2.00;;
60006;SDS011;45863;50.336;3.536;2023-08-21T11:36:02;5.32;;;1.85;;
60006;SDS011;45863;50.336;3.536;2023-08-21T11:38:27;5.18;;;1.73;;
60006;SDS011;45863;50.336;3.536;2023-08-21T11:43:18;6.13;;;1.43;;
60006;SDS011;45863;50.336;3.536;2023-08-21T11:45:45;5.68;;;1.52;;
60006;SDS011;45863;50.336;3.536;2023-08-21T11:48:10;6.43;;;1.70;;
60006;SDS011;45863;50.336;3.536;2023-08-21T11:50:35;4.73;;;1.63;;
60006;SDS011;45863;50.336;3.536;2023-08-21T11:53:02;5.87;;;1.80;;
60006;SDS011;45863;50.336;3.536;2023-08-21T11:55:27;5.63;;;1.83;;
60006;SDS011;45863;50.336;3.536;2023-08-21T11:57:53;4.90;;;1.90;;
60006;SDS011;45863;50.336;3.536;2023-08-21T12:00:26;5.03;;;1.80;;
60006;SDS011;45863;50.336;3.536;2023-08-21T12:02:54;6.43;;;1.55;;
60006;SDS011;45863;50.336;3.536;2023-08-21T12:05:21;5.32;;;1.50;;
60006;SDS011;45863;50.336;3.536;2023-08-21T12:07:46;7.00;;;1.80;;
60006;SDS011;45863;50.336;3.536;2023-08-21T12:10:11;4.77;;;1.73;;
60006;SDS011;45863;50.336;3.536;2023-08-21T12:12:36;7.90;;;1.83;;
60006;SDS011;45863;50.336;3.536;2023-08-21T12:15:02;5.00;;;1.50;;
60006;SDS011;45863;50.336;3.536;2023-08-21T12:17:27;4.70;;;1.92;;
60006;SDS011;45863;50.336;3.536;2023-08-21T12:19:52;3.87;;;1.40;;
60006;SDS011;45863;50.336;3.536;2023-08-21T12:22:17;5.47;;;1.90;;
60006;SDS011;45863;50.336;3.536;2023-08-21T12:24:42;3.50;;;1.60;;
60006;SDS011;45863;50.336;3.536;2023-08-21T12:27:08;5.72;;;1.58;;
60006;SDS011;45863;50.336;3.536;2023-08-21T12:29:33;4.80;;;1.77;;
60006;SDS011;45863;50.336;3.536;2023-08-21T12:31:59;5.70;;;1.83;;
60006;SDS011;45863;50.336;3.536;2023-08-21T12:34:24;7.50;;;1.50;;
60006;SDS011;45863;50.336;3.536;2023-08-21T12:36:50;3.73;;;1.30;;
60006;SDS011;45863;50.336;3.536;2023-08-21T12:39:16;3.60;;;1.48;;
60006;SDS011;45863;50.336;3.536;2023-08-21T12:41:41;5.97;;;1.80;;
60006;SDS011;45863;50.336;3.536;2023-08-21T12:44:07;5.63;;;1.53;;
60006;SDS011;45863;50.336;3.536;2023-08-21T12:46:33;4.20;;;1.58;;
60006;SDS011;45863;50.336;3.536;2023-08-21T12:48:59;4.32;;;1.90;;
60006;SDS011;45863;50.336;3.536;2023-08-21T12:51:26;4.95;;;1.50;;
60006;SDS011;45863;50.336;3.536;2023-08-21T12:53:51;4.82;;;1.67;;
60006;SDS011;45863;50.336;3.536;2023-08-21T12:56:16;5.60;;;1.47;;
60006;SDS011;45863;50.336;3.536;2023-08-21T12:58:42;5.03;;;1.50;;
60006;SDS011;45863;50.336;3.536;2023-08-21T13:01:07;3.30;;;1.43;;
60006;SDS011;45863;50.336;3.536;2023-08-21T13:03:33;4.38;;;1.50;;
60006;SDS011;45863;50.336;3.536;2023-08-21T13:05:58;4.63;;;1.53;;
60006;SDS011;45863;50.336;3.536;2023-08-21T13:08:24;3.58;;;1.45;;
60006;SDS011;45863;50.336;3.536;2023-08-21T13:10:49;3.78;;;1.27;;
60006;SDS011;45863;50.336;3.536;2023-08-21T13:13:14;3.67;;;1.50;;
60006;SDS011;45863;50.336;3.536;2023-08-21T13:15:39;4.43;;;1.43;;
60006;SDS011;45863;50.336;3.536;2023-08-21T13:18:05;6.93;;;1.40;;
60006;SDS011;45863;50.336;3.536;2023-08-21T13:20:31;5.03;;;1.70;;
60006;SDS011;45863;50.336;3.536;2023-08-21T13:22:56;4.70;;;1.50;;
60006;SDS011;45863;50.336;3.536;2023-08-21T13:25:22;3.47;;;1.53;;
60006;SDS011;45863;50.336;3.536;2023-08-21T13:27:48;4.18;;;1.60;;
60006;SDS011;45863;50.336;3.536;2023-08-21T13:30:13;4.78;;;1.65;;
60006;SDS011;45863;50.336;3.536;2023-08-21T13:32:38;3.45;;;1.60;;
60006;SDS011;45863;50.336;3.536;2023-08-21T13:35:04;7.57;;;1.67;;
60006;SDS011;45863;50.336;3.536;2023-08-21T13:37:33;3.88;;;1.40;;
60006;SDS011;45863;50.336;3.536;2023-08-21T13:39:59;4.07;;;1.30;;
60006;SDS011;45863;50.336;3.536;2023-08-21T13:42:25;3.17;;;1.35;;
60006;SDS011;45863;50.336;3.536;2023-08-21T13:44:50;6.03;;;1.55;;
60006;SDS011;45863;50.336;3.536;2023-08-21T13:47:15;3.95;;;1.63;;
60006;SDS011;45863;50.336;3.536;2023-08-21T13:49:41;6.10;;;1.50;;
60006;SDS011;45863;50.336;3.536;2023-08-21T13:52:06;6.43;;;1.67;;
60006;SDS011;45863;50.336;3.536;2023-08-21T13:54:31;3.50;;;1.50;;
60006;SDS011;45863;50.336;3.536;2023-08-21T13:56:56;4.57;;;1.50;;
60006;SDS011;45863;50.336;3.536;2023-08-21T13:59:22;4.00;;;1.20;;
60006;SDS011;45863;50.336;3.536;2023-08-21T14:01:47;2.97;;;1.03;;
60006;SDS011;45863;50.336;3.536;2023-08-21T14:04:12;6.00;;;2.13;;
60006;SDS011;45863;50.336;3.536;2023-08-21T14:06:37;3.50;;;1.50;;
60006;SDS011;45863;50.336;3.536;2023-08-21T14:09:03;3.07;;;1.40;;
60006;SDS011;45863;50.336;3.536;2023-08-21T14:11:28;6.07;;;1.53;;
60006;SDS011;45863;50.336;3.536;2023-08-21T14:13:53;3.30;;;1.30;;
60006;SDS011;45863;50.336;3.536;2023-08-21T14:16:18;3.63;;;1.17;;
60006;SDS011;45863;50.336;3.536;2023-08-21T14:18:44;3.97;;;1.50;;
60006;SDS011;45863;50.336;3.536;2023-08-21T14:21:09;6.43;;;1.30;;
60006;SDS011;45863;50.336;3.536;2023-08-21T14:23:34;4.93;;;1.23;;
60006;SDS011;45863;50.336;3.536;2023-08-21T14:25:59;3.37;;;1.17;;
60006;SDS011;45863;50.336;3.536;2023-08-21T14:28:24;3.67;;;1.00;;
60006;SDS011;45863;50.336;3.536;2023-08-21T14:30:50;3.73;;;1.20;;
60006;SDS011;45863;50.336;3.536;2023-08-21T14:33:17;5.47;;;1.02;;
60006;SDS011;45863;50.336;3.536;2023-08-21T14:35:42;6.32;;;0.70;;
60006;SDS011;45863;50.336;3.536;2023-08-21T14:38:07;8.83;;;1.63;;
60006;SDS011;45863;50.336;3.536;2023-08-21T14:40:32;2.43;;;0.80;;
60006;SDS011;45863;50.336;3.536;2023-08-21T14:42:58;2.90;;;1.07;;
60006;SDS011;45863;50.336;3.536;2023-08-21T14:45:23;2.67;;;0.73;;
60006;SDS011;45863;50.336;3.536;2023-08-21T14:47:48;3.87;;;0.90;;